• Join FlightAware (Why Join?)
  • Login
  • US Flag 
05:58AM EDT


 

Airport Tracker/Info


-or-


 

Live Flight TrackerFlight Track Log ✈ DLH917 ✈ 15-Apr-2013 ✈ EGLL / LHR - EDDF / FRA

Flight Track Log - Related Links

Times and Time Zones

All times are in EDT time to prevent confusion due to time zone crossing. See the DLH917 flight status page for this flight to view local times or setup timezone preferences in your user account.

Time Position Orientation Groundspeed Altitude Reporting Facility
EDT Latitude Longitude Course Direction KTS MPH feet Rate Location/Type
02:12PM 51.4284 -0.0534 101° East  Level Estimated
02:13PM 51.4117 0.0825 101° East  Level Estimated
02:14PM 51.3949 0.2182 101° East  Level Estimated
02:15PM 51.3779 0.3538 101° East  Level Estimated
02:16PM 51.3607 0.4893 101° East  Level Estimated
02:17PM 51.3434 0.6247 102° East  Level Estimated
02:18PM 51.3259 0.7600 102° East  Level Estimated
02:19PM 51.3056 0.9158 102° East  Level Estimated
02:20PM 51.2851 1.0715 102° East  Level Estimated
02:21PM 51.2644 1.2270 102° East  Level Estimated
02:22PM 51.2434 1.3824 102° East  Level Estimated
02:23PM 51.2223 1.5377 102° East  Level Estimated
02:24PM 51.2009 1.6928 102° East  Level Estimated
02:25PM 51.1794 1.8478 102° East  Level Estimated
02:26PM 51.1576 2.0026 103° East  Level Estimated
02:27PM 51.1356 2.1573 103° East  Level Estimated
02:28PM 51.1134 2.3118 103° East  Level Estimated
02:29PM 51.0911 2.4662 103° East  Level Estimated
02:30PM 51.0685 2.6204 103° East  Level Estimated
02:31PM 51.0457 2.7745 103° East  Level Estimated
02:32PM 51.0227 2.9284 103° East  Level Estimated
02:33PM 50.9996 3.0822 103° East  Level Estimated
02:34PM 50.9762 3.2358 104° East  Level Estimated
02:35PM 50.9526 3.3893 104° East  Level Estimated
02:36PM 50.9288 3.5426 104° East  Level Estimated
02:37PM 50.9048 3.6957 104° East  Level Estimated
02:38PM 50.8806 3.8487 104° East  Level Estimated
02:39PM 50.8562 4.0016 104° East  Level Estimated
02:40PM 50.8316 4.1542 104° East  Level Estimated
02:41PM 50.8068 4.3067 104° East  Level Estimated
02:42PM 50.7819 4.4591 104° East  Level Estimated
02:43PM 50.7567 4.6113 105° East  Level Estimated
02:44PM 50.7313 4.7633 105° East  Level Estimated
02:45PM 50.7057 4.9152 105° East  Level Estimated
02:46PM 50.6800 5.0669 105° East  Level Estimated
02:47PM 50.6540 5.2184 105° East  Level Estimated
02:48PM 50.6278 5.3697 105° East  Level Estimated
02:49PM 50.6015 5.5209 105° East  Level Estimated
02:50PM 50.5749 5.6719 105° East  Level Estimated
02:51PM 50.5481 5.8228 106° East  Level Estimated
02:52PM 50.5212 5.9734 106° East  Level Estimated
02:53PM 50.4940 6.1239 106° East  Level Estimated
02:54PM 50.4667 6.2743 106° East  Level Estimated
02:55PM 50.4392 6.4244 106° East  Level Estimated
02:56PM 50.4115 6.5744 106° East  Level Estimated
02:57PM 50.3835 6.7242 106° East  Level Estimated
02:58PM 50.3554 6.8738 106° East  Level Estimated
02:59PM 50.3271 7.0233 106° East  Level Estimated
03:00PM 50.2986 7.1725 107° East  Level Estimated
03:01PM 50.2700 7.3216 107° East  Level Estimated
03:02PM 50.2411 7.4705 107° East  Level Estimated
03:03PM 50.2120 7.6192 107° East  Level Estimated
03:04PM 50.1828 7.7678 107° East  Level Estimated
03:05PM 50.1533 7.9162 107° East  Level Estimated
03:06PM 50.1237 8.0643 107° East  Level Estimated
03:07PM 50.0939 8.2123 107° East  Level Estimated
03:08PM 50.0639 8.3602 107° East  Level Estimated
03:09PM 50.0337 8.5078 108° East  Level Estimated
03:10PM 50.0264 8.5431 108° East  Level Estimated
03:11PM 50.0264 8.5431 73° East  Level Estimated
03:12PM 50.0264 8.5431 73° East  Level Estimated
03:13PM 50.0264 8.5431 73° East  Level Estimated
03:14PM 50.0264 8.5431 73° East  Level Estimated
03:15PM 50.0264 8.5431 73° East  Level Estimated
03:16PM 50.0264 8.5431 73° East  Level Estimated
03:17PM 50.0264 8.5431 73° East  Level Estimated
03:18PM 50.0264 8.5431 73° East  Level Estimated
03:19PM 50.0264 8.5431 73° East  Level Estimated
03:20PM 50.0264 8.5431 73° East  Level Estimated
03:21PM 50.0264 8.5431 73° East  Level Estimated
03:22PM 50.0264 8.5431 73° East  Level Estimated
03:23PM 50.0264 8.5431 73° East  Level Estimated
03:24PM 50.0264 8.5431 73° East  Level Estimated